sensor_id;sensor_type;location;lat;lon;timestamp;P1;durP1;ratioP1;P2;durP2;ratioP2
77938;SDS011;67136;47.546;21.630;2023-06-14T00:00:28;10.77;;;5.18;;
77938;SDS011;67136;47.546;21.630;2023-06-14T00:03:30;11.55;;;5.35;;
77938;SDS011;67136;47.546;21.630;2023-06-14T00:06:34;18.30;;;6.67;;
77938;SDS011;67136;47.546;21.630;2023-06-14T00:09:37;15.40;;;5.93;;
77938;SDS011;67136;47.546;21.630;2023-06-14T00:12:39;14.95;;;5.72;;
77938;SDS011;67136;47.546;21.630;2023-06-14T00:15:42;12.37;;;5.70;;
77938;SDS011;67136;47.546;21.630;2023-06-14T00:18:50;13.18;;;5.40;;
77938;SDS011;67136;47.546;21.630;2023-06-14T00:21:54;13.67;;;6.47;;
77938;SDS011;67136;47.546;21.630;2023-06-14T00:24:57;14.07;;;6.23;;
77938;SDS011;67136;47.546;21.630;2023-06-14T00:28:00;14.05;;;6.03;;
77938;SDS011;67136;47.546;21.630;2023-06-14T00:31:03;13.75;;;5.75;;
77938;SDS011;67136;47.546;21.630;2023-06-14T00:34:06;13.88;;;5.78;;
77938;SDS011;67136;47.546;21.630;2023-06-14T00:37:08;15.07;;;6.43;;
77938;SDS011;67136;47.546;21.630;2023-06-14T00:40:11;16.93;;;6.53;;
77938;SDS011;67136;47.546;21.630;2023-06-14T00:43:14;15.60;;;6.57;;
77938;SDS011;67136;47.546;21.630;2023-06-14T00:46:18;18.58;;;6.35;;
77938;SDS011;67136;47.546;21.630;2023-06-14T00:49:21;13.77;;;6.15;;
77938;SDS011;67136;47.546;21.630;2023-06-14T00:52:24;15.53;;;6.60;;
77938;SDS011;67136;47.546;21.630;2023-06-14T00:55:27;13.07;;;6.13;;
77938;SDS011;67136;47.546;21.630;2023-06-14T00:58:30;13.38;;;5.50;;
77938;SDS011;67136;47.546;21.630;2023-06-14T01:01:33;30.70;;;6.80;;
77938;SDS011;67136;47.546;21.630;2023-06-14T01:04:36;20.73;;;6.57;;
77938;SDS011;67136;47.546;21.630;2023-06-14T01:07:44;15.23;;;6.27;;
77938;SDS011;67136;47.546;21.630;2023-06-14T01:14:20;14.77;;;5.78;;
77938;SDS011;67136;47.546;21.630;2023-06-14T01:17:23;21.52;;;5.50;;
77938;SDS011;67136;47.546;21.630;2023-06-14T01:20:29;14.95;;;5.93;;
77938;SDS011;67136;47.546;21.630;2023-06-14T01:23:41;14.70;;;6.07;;
77938;SDS011;67136;47.546;21.630;2023-06-14T01:26:43;21.10;;;5.03;;
77938;SDS011;67136;47.546;21.630;2023-06-14T01:29:48;10.88;;;4.90;;
77938;SDS011;67136;47.546;21.630;2023-06-14T01:32:53;13.13;;;4.65;;
77938;SDS011;67136;47.546;21.630;2023-06-14T01:35:58;15.88;;;6.30;;
77938;SDS011;67136;47.546;21.630;2023-06-14T01:39:06;13.57;;;5.67;;
77938;SDS011;67136;47.546;21.630;2023-06-14T01:42:10;10.83;;;4.77;;
77938;SDS011;67136;47.546;21.630;2023-06-14T01:45:20;12.55;;;4.90;;
77938;SDS011;67136;47.546;21.630;2023-06-14T01:48:25;11.15;;;4.40;;
77938;SDS011;67136;47.546;21.630;2023-06-14T01:51:27;9.68;;;4.40;;
77938;SDS011;67136;47.546;21.630;2023-06-14T01:54:31;10.13;;;4.80;;
77938;SDS011;67136;47.546;21.630;2023-06-14T01:57:33;10.50;;;5.10;;
77938;SDS011;67136;47.546;21.630;2023-06-14T02:00:37;11.07;;;5.32;;
77938;SDS011;67136;47.546;21.630;2023-06-14T02:03:39;13.35;;;5.12;;
77938;SDS011;67136;47.546;21.630;2023-06-14T02:06:42;11.07;;;5.20;;
77938;SDS011;67136;47.546;21.630;2023-06-14T02:09:46;15.30;;;5.53;;
77938;SDS011;67136;47.546;21.630;2023-06-14T02:12:49;8.87;;;4.10;;
77938;SDS011;67136;47.546;21.630;2023-06-14T02:16:01;11.75;;;4.95;;
77938;SDS011;67136;47.546;21.630;2023-06-14T02:19:07;13.77;;;5.05;;
77938;SDS011;67136;47.546;21.630;2023-06-14T02:22:10;11.38;;;5.40;;
77938;SDS011;67136;47.546;21.630;2023-06-14T02:25:13;11.60;;;5.60;;
77938;SDS011;67136;47.546;21.630;2023-06-14T02:28:16;12.53;;;5.53;;
77938;SDS011;67136;47.546;21.630;2023-06-14T02:31:18;15.88;;;6.12;;
77938;SDS011;67136;47.546;21.630;2023-06-14T02:34:23;12.05;;;5.25;;
77938;SDS011;67136;47.546;21.630;2023-06-14T02:37:25;13.65;;;5.93;;
77938;SDS011;67136;47.546;21.630;2023-06-14T02:40:31;11.33;;;5.60;;
77938;SDS011;67136;47.546;21.630;2023-06-14T02:43:33;16.00;;;6.67;;
77938;SDS011;67136;47.546;21.630;2023-06-14T02:46:40;13.07;;;5.97;;
77938;SDS011;67136;47.546;21.630;2023-06-14T02:49:43;15.23;;;6.07;;
77938;SDS011;67136;47.546;21.630;2023-06-14T02:52:49;15.10;;;6.47;;
77938;SDS011;67136;47.546;21.630;2023-06-14T02:55:51;14.73;;;6.27;;
77938;SDS011;67136;47.546;21.630;2023-06-14T02:58:55;16.77;;;6.67;;
77938;SDS011;67136;47.546;21.630;2023-06-14T03:01:57;16.33;;;6.68;;
77938;SDS011;67136;47.546;21.630;2023-06-14T03:05:01;16.42;;;6.68;;
77938;SDS011;67136;47.546;21.630;2023-06-14T03:08:04;17.05;;;6.37;;
77938;SDS011;67136;47.546;21.630;2023-06-14T03:11:08;14.47;;;7.23;;
77938;SDS011;67136;47.546;21.630;2023-06-14T03:14:11;15.03;;;6.17;;
77938;SDS011;67136;47.546;21.630;2023-06-14T03:17:16;19.00;;;6.75;;
77938;SDS011;67136;47.546;21.630;2023-06-14T03:20:19;17.08;;;6.55;;
77938;SDS011;67136;47.546;21.630;2023-06-14T03:23:23;15.73;;;7.15;;
77938;SDS011;67136;47.546;21.630;2023-06-14T03:26:26;16.77;;;7.03;;
77938;SDS011;67136;47.546;21.630;2023-06-14T03:29:30;15.77;;;6.97;;
77938;SDS011;67136;47.546;21.630;2023-06-14T03:32:33;19.00;;;8.00;;
77938;SDS011;67136;47.546;21.630;2023-06-14T03:35:37;17.15;;;7.25;;
77938;SDS011;67136;47.546;21.630;2023-06-14T03:38:39;18.35;;;7.30;;
77938;SDS011;67136;47.546;21.630;2023-06-14T03:41:42;18.50;;;7.47;;
77938;SDS011;67136;47.546;21.630;2023-06-14T03:44:45;19.67;;;7.93;;
77938;SDS011;67136;47.546;21.630;2023-06-14T03:47:48;19.33;;;8.27;;
77938;SDS011;67136;47.546;21.630;2023-06-14T03:50:51;25.67;;;9.10;;
77938;SDS011;67136;47.546;21.630;2023-06-14T03:53:55;17.50;;;7.70;;
77938;SDS011;67136;47.546;21.630;2023-06-14T03:57:18;18.43;;;8.00;;
77938;SDS011;67136;47.546;21.630;2023-06-14T04:00:24;22.57;;;8.90;;
77938;SDS011;67136;47.546;21.630;2023-06-14T04:03:26;20.33;;;8.52;;
77938;SDS011;67136;47.546;21.630;2023-06-14T04:06:32;20.85;;;9.02;;
77938;SDS011;67136;47.546;21.630;2023-06-14T04:09:40;22.37;;;9.68;;
77938;SDS011;67136;47.546;21.630;2023-06-14T04:12:43;21.47;;;8.73;;
77938;SDS011;67136;47.546;21.630;2023-06-14T04:15:46;19.93;;;8.60;;
77938;SDS011;67136;47.546;21.630;2023-06-14T04:18:49;19.55;;;8.15;;
77938;SDS011;67136;47.546;21.630;2023-06-14T04:21:54;21.15;;;9.25;;
77938;SDS011;67136;47.546;21.630;2023-06-14T04:24:57;18.55;;;8.43;;
77938;SDS011;67136;47.546;21.630;2023-06-14T04:28:07;19.40;;;8.10;;
77938;SDS011;67136;47.546;21.630;2023-06-14T04:31:13;18.53;;;8.43;;
77938;SDS011;67136;47.546;21.630;2023-06-14T04:34:16;16.60;;;7.70;;
77938;SDS011;67136;47.546;21.630;2023-06-14T04:37:29;19.67;;;8.38;;
77938;SDS011;67136;47.546;21.630;2023-06-14T04:40:32;18.08;;;8.70;;
77938;SDS011;67136;47.546;21.630;2023-06-14T04:43:36;19.03;;;8.33;;
77938;SDS011;67136;47.546;21.630;2023-06-14T04:46:42;17.00;;;8.10;;
77938;SDS011;67136;47.546;21.630;2023-06-14T04:49:49;17.23;;;7.97;;
77938;SDS011;67136;47.546;21.630;2023-06-14T04:52:55;14.70;;;8.25;;
77938;SDS011;67136;47.546;21.630;2023-06-14T04:55:59;15.50;;;7.45;;
77938;SDS011;67136;47.546;21.630;2023-06-14T04:59:04;18.43;;;8.13;;
77938;SDS011;67136;47.546;21.630;2023-06-14T05:02:07;16.23;;;7.57;;
77938;SDS011;67136;47.546;21.630;2023-06-14T05:05:13;14.40;;;8.13;;
77938;SDS011;67136;47.546;21.630;2023-06-14T05:08:20;22.75;;;8.38;;
77938;SDS011;67136;47.546;21.630;2023-06-14T05:11:28;15.75;;;7.87;;
77938;SDS011;67136;47.546;21.630;2023-06-14T05:14:31;14.27;;;7.53;;
77938;SDS011;67136;47.546;21.630;2023-06-14T05:17:34;18.67;;;7.50;;
77938;SDS011;67136;47.546;21.630;2023-06-14T05:20:38;12.95;;;6.93;;
77938;SDS011;67136;47.546;21.630;2023-06-14T05:23:41;16.42;;;7.70;;
77938;SDS011;67136;47.546;21.630;2023-06-14T05:26:44;15.82;;;7.35;;
77938;SDS011;67136;47.546;21.630;2023-06-14T05:29:47;12.90;;;6.97;;
77938;SDS011;67136;47.546;21.630;2023-06-14T05:32:50;16.23;;;7.40;;
77938;SDS011;67136;47.546;21.630;2023-06-14T05:35:52;13.95;;;6.90;;
77938;SDS011;67136;47.546;21.630;2023-06-14T05:38:55;12.00;;;6.55;;
77938;SDS011;67136;47.546;21.630;2023-06-14T05:42:00;11.32;;;6.28;;
77938;SDS011;67136;47.546;21.630;2023-06-14T05:45:03;13.97;;;6.57;;
77938;SDS011;67136;47.546;21.630;2023-06-14T05:48:07;13.60;;;6.17;;
77938;SDS011;67136;47.546;21.630;2023-06-14T05:51:10;12.48;;;6.72;;
77938;SDS011;67136;47.546;21.630;2023-06-14T05:54:14;11.85;;;5.75;;
77938;SDS011;67136;47.546;21.630;2023-06-14T05:57:17;10.55;;;5.25;;
77938;SDS011;67136;47.546;21.630;2023-06-14T06:00:20;11.27;;;6.10;;
77938;SDS011;67136;47.546;21.630;2023-06-14T06:03:23;13.23;;;5.63;;
77938;SDS011;67136;47.546;21.630;2023-06-14T06:06:26;11.50;;;6.30;;
77938;SDS011;67136;47.546;21.630;2023-06-14T06:09:29;10.82;;;6.25;;
77938;SDS011;67136;47.546;21.630;2023-06-14T06:12:36;13.13;;;5.68;;
77938;SDS011;67136;47.546;21.630;2023-06-14T06:15:39;12.07;;;6.30;;
77938;SDS011;67136;47.546;21.630;2023-06-14T06:18:44;8.90;;;4.97;;
77938;SDS011;67136;47.546;21.630;2023-06-14T06:21:47;10.35;;;5.15;;
77938;SDS011;67136;47.546;21.630;2023-06-14T06:24:49;9.05;;;4.85;;
77938;SDS011;67136;47.546;21.630;2023-06-14T06:27:55;34.25;;;8.18;;
77938;SDS011;67136;47.546;21.630;2023-06-14T06:31:00;15.73;;;6.90;;
77938;SDS011;67136;47.546;21.630;2023-06-14T06:34:06;8.87;;;5.07;;
77938;SDS011;67136;47.546;21.630;2023-06-14T06:37:08;28.00;;;8.98;;
77938;SDS011;67136;47.546;21.630;2023-06-14T06:40:12;13.73;;;5.72;;
77938;SDS011;67136;47.546;21.630;2023-06-14T06:43:14;9.32;;;5.10;;
77938;SDS011;67136;47.546;21.630;2023-06-14T06:46:22;9.45;;;5.03;;
77938;SDS011;67136;47.546;21.630;2023-06-14T06:49:26;8.37;;;4.67;;
77938;SDS011;67136;47.546;21.630;2023-06-14T06:52:32;9.30;;;5.15;;
77938;SDS011;67136;47.546;21.630;2023-06-14T06:55:34;6.43;;;4.12;;
77938;SDS011;67136;47.546;21.630;2023-06-14T06:58:37;22.98;;;6.78;;
77938;SDS011;67136;47.546;21.630;2023-06-14T07:01:40;14.05;;;6.00;;
77938;SDS011;67136;47.546;21.630;2023-06-14T07:04:42;36.87;;;9.90;;
77938;SDS011;67136;47.546;21.630;2023-06-14T07:07:49;10.70;;;4.60;;
77938;SDS011;67136;47.546;21.630;2023-06-14T07:10:51;9.50;;;4.72;;
77938;SDS011;67136;47.546;21.630;2023-06-14T07:13:56;6.97;;;4.55;;
77938;SDS011;67136;47.546;21.630;2023-06-14T07:16:59;9.27;;;4.55;;
77938;SDS011;67136;47.546;21.630;2023-06-14T07:20:04;8.30;;;4.60;;
77938;SDS011;67136;47.546;21.630;2023-06-14T07:23:10;9.40;;;6.07;;
77938;SDS011;67136;47.546;21.630;2023-06-14T07:26:13;8.90;;;4.75;;
77938;SDS011;67136;47.546;21.630;2023-06-14T07:29:17;6.62;;;4.50;;
77938;SDS011;67136;47.546;21.630;2023-06-14T07:32:20;6.97;;;4.30;;
77938;SDS011;67136;47.546;21.630;2023-06-14T07:35:23;7.60;;;4.20;;
77938;SDS011;67136;47.546;21.630;2023-06-14T07:38:26;6.82;;;4.40;;
77938;SDS011;67136;47.546;21.630;2023-06-14T07:41:29;9.68;;;4.57;;
77938;SDS011;67136;47.546;21.630;2023-06-14T07:44:32;8.68;;;4.65;;
77938;SDS011;67136;47.546;21.630;2023-06-14T07:47:35;6.18;;;4.00;;
77938;SDS011;67136;47.546;21.630;2023-06-14T07:50:38;6.57;;;4.00;;
77938;SDS011;67136;47.546;21.630;2023-06-14T07:53:41;9.27;;;4.40;;
77938;SDS011;67136;47.546;21.630;2023-06-14T07:56:44;9.27;;;4.40;;
77938;SDS011;67136;47.546;21.630;2023-06-14T07:59:48;8.90;;;4.53;;
77938;SDS011;67136;47.546;21.630;2023-06-14T08:02:52;9.18;;;4.87;;
77938;SDS011;67136;47.546;21.630;2023-06-14T08:06:03;7.40;;;4.80;;
77938;SDS011;67136;47.546;21.630;2023-06-14T08:09:10;7.28;;;4.93;;
77938;SDS011;67136;47.546;21.630;2023-06-14T08:12:13;15.10;;;5.55;;
77938;SDS011;67136;47.546;21.630;2023-06-14T08:15:16;15.40;;;5.43;;
77938;SDS011;67136;47.546;21.630;2023-06-14T08:18:22;8.23;;;4.70;;
77938;SDS011;67136;47.546;21.630;2023-06-14T08:21:25;5.60;;;4.20;;
77938;SDS011;67136;47.546;21.630;2023-06-14T08:24:30;10.27;;;4.40;;
77938;SDS011;67136;47.546;21.630;2023-06-14T08:27:33;9.68;;;4.28;;
77938;SDS011;67136;47.546;21.630;2023-06-14T08:30:36;6.43;;;4.40;;
77938;SDS011;67136;47.546;21.630;2023-06-14T08:33:38;5.57;;;4.03;;
77938;SDS011;67136;47.546;21.630;2023-06-14T08:36:46;6.90;;;4.17;;
77938;SDS011;67136;47.546;21.630;2023-06-14T08:39:49;7.43;;;3.90;;
77938;SDS011;67136;47.546;21.630;2023-06-14T08:42:52;7.35;;;4.40;;
77938;SDS011;67136;47.546;21.630;2023-06-14T08:46:00;7.32;;;4.28;;
77938;SDS011;67136;47.546;21.630;2023-06-14T08:49:12;7.15;;;4.40;;
77938;SDS011;67136;47.546;21.630;2023-06-14T08:52:20;5.83;;;4.37;;
77938;SDS011;67136;47.546;21.630;2023-06-14T08:55:25;7.75;;;4.57;;
77938;SDS011;67136;47.546;21.630;2023-06-14T08:58:29;8.05;;;4.47;;
77938;SDS011;67136;47.546;21.630;2023-06-14T09:01:38;7.22;;;4.50;;
77938;SDS011;67136;47.546;21.630;2023-06-14T09:04:40;7.20;;;4.70;;
77938;SDS011;67136;47.546;21.630;2023-06-14T09:07:47;7.93;;;4.37;;
77938;SDS011;67136;47.546;21.630;2023-06-14T09:11:00;9.40;;;4.18;;
77938;SDS011;67136;47.546;21.630;2023-06-14T09:14:04;6.10;;;3.83;;
77938;SDS011;67136;47.546;21.630;2023-06-14T09:17:06;6.18;;;4.20;;
77938;SDS011;67136;47.546;21.630;2023-06-14T09:20:10;7.30;;;4.20;;
77938;SDS011;67136;47.546;21.630;2023-06-14T09:23:13;7.80;;;4.30;;
77938;SDS011;67136;47.546;21.630;2023-06-14T09:26:17;8.10;;;3.78;;
77938;SDS011;67136;47.546;21.630;2023-06-14T09:29:30;7.15;;;4.10;;
77938;SDS011;67136;47.546;21.630;2023-06-14T09:32:36;8.77;;;3.97;;
77938;SDS011;67136;47.546;21.630;2023-06-14T09:35:40;6.97;;;4.10;;
77938;SDS011;67136;47.546;21.630;2023-06-14T09:38:51;8.80;;;4.13;;
77938;SDS011;67136;47.546;21.630;2023-06-14T09:42:18;7.47;;;4.10;;
77938;SDS011;67136;47.546;21.630;2023-06-14T09:45:25;6.32;;;3.92;;
77938;SDS011;67136;47.546;21.630;2023-06-14T09:48:32;6.22;;;3.40;;
77938;SDS011;67136;47.546;21.630;2023-06-14T09:51:42;6.10;;;3.00;;
77938;SDS011;67136;47.546;21.630;2023-06-14T09:54:46;4.40;;;3.13;;
77938;SDS011;67136;47.546;21.630;2023-06-14T09:57:51;7.85;;;4.60;;
77938;SDS011;67136;47.546;21.630;2023-06-14T10:00:55;6.68;;;3.65;;
77938;SDS011;67136;47.546;21.630;2023-06-14T10:04:09;6.95;;;3.53;;
77938;SDS011;67136;47.546;21.630;2023-06-14T10:07:14;4.93;;;3.37;;
77938;SDS011;67136;47.546;21.630;2023-06-14T10:10:26;5.10;;;2.70;;
77938;SDS011;67136;47.546;21.630;2023-06-14T10:13:30;11.82;;;3.67;;
77938;SDS011;67136;47.546;21.630;2023-06-14T10:16:56;6.70;;;3.20;;
77938;SDS011;67136;47.546;21.630;2023-06-14T10:20:17;5.45;;;2.95;;
77938;SDS011;67136;47.546;21.630;2023-06-14T10:23:23;6.43;;;3.30;;
77938;SDS011;67136;47.546;21.630;2023-06-14T10:26:27;5.07;;;2.80;;
77938;SDS011;67136;47.546;21.630;2023-06-14T10:29:33;9.60;;;2.97;;
77938;SDS011;67136;47.546;21.630;2023-06-14T10:32:35;4.05;;;2.95;;
77938;SDS011;67136;47.546;21.630;2023-06-14T10:36:27;5.20;;;2.95;;
77938;SDS011;67136;47.546;21.630;2023-06-14T10:39:50;4.50;;;2.85;;
77938;SDS011;67136;47.546;21.630;2023-06-14T10:42:55;5.57;;;2.80;;
77938;SDS011;67136;47.546;21.630;2023-06-14T10:49:44;5.47;;;2.65;;
77938;SDS011;67136;47.546;21.630;2023-06-14T10:52:52;6.37;;;2.83;;
77938;SDS011;67136;47.546;21.630;2023-06-14T10:55:57;4.05;;;2.78;;
77938;SDS011;67136;47.546;21.630;2023-06-14T10:59:09;8.13;;;3.27;;
77938;SDS011;67136;47.546;21.630;2023-06-14T11:12:32;6.25;;;2.55;;
77938;SDS011;67136;47.546;21.630;2023-06-14T11:15:38;8.47;;;3.17;;
77938;SDS011;67136;47.546;21.630;2023-06-14T11:18:45;3.97;;;2.40;;
77938;SDS011;67136;47.546;21.630;2023-06-14T11:21:50;5.00;;;2.85;;
77938;SDS011;67136;47.546;21.630;2023-06-14T11:24:52;4.32;;;2.83;;
77938;SDS011;67136;47.546;21.630;2023-06-14T11:27:55;3.47;;;2.70;;
77938;SDS011;67136;47.546;21.630;2023-06-14T11:31:02;6.63;;;2.60;;
77938;SDS011;67136;47.546;21.630;2023-06-14T11:34:06;8.68;;;3.03;;
77938;SDS011;67136;47.546;21.630;2023-06-14T11:37:08;5.78;;;2.92;;
77938;SDS011;67136;47.546;21.630;2023-06-14T11:40:12;6.32;;;3.05;;
77938;SDS011;67136;47.546;21.630;2023-06-14T11:43:15;4.82;;;2.80;;
77938;SDS011;67136;47.546;21.630;2023-06-14T11:46:19;12.83;;;3.00;;
77938;SDS011;67136;47.546;21.630;2023-06-14T11:49:26;8.57;;;2.90;;
77938;SDS011;67136;47.546;21.630;2023-06-14T11:52:30;8.93;;;2.67;;
77938;SDS011;67136;47.546;21.630;2023-06-14T11:55:37;4.62;;;2.45;;
77938;SDS011;67136;47.546;21.630;2023-06-14T11:58:44;6.80;;;3.05;;
77938;SDS011;67136;47.546;21.630;2023-06-14T12:01:47;6.53;;;3.10;;
77938;SDS011;67136;47.546;21.630;2023-06-14T12:04:50;5.47;;;2.72;;
77938;SDS011;67136;47.546;21.630;2023-06-14T12:07:59;7.70;;;3.00;;
77938;SDS011;67136;47.546;21.630;2023-06-14T12:11:03;5.00;;;2.35;;
77938;SDS011;67136;47.546;21.630;2023-06-14T12:14:05;5.20;;;2.85;;
77938;SDS011;67136;47.546;21.630;2023-06-14T12:17:10;5.60;;;2.80;;
77938;SDS011;67136;47.546;21.630;2023-06-14T12:20:13;6.95;;;2.60;;
77938;SDS011;67136;47.546;21.630;2023-06-14T12:23:18;5.43;;;2.60;;
77938;SDS011;67136;47.546;21.630;2023-06-14T12:26:23;4.95;;;2.60;;
77938;SDS011;67136;47.546;21.630;2023-06-14T12:29:28;3.15;;;2.60;;
77938;SDS011;67136;47.546;21.630;2023-06-14T12:32:31;9.23;;;2.70;;
77938;SDS011;67136;47.546;21.630;2023-06-14T12:35:37;4.85;;;2.40;;
77938;SDS011;67136;47.546;21.630;2023-06-14T12:38:41;6.40;;;2.33;;
77938;SDS011;67136;47.546;21.630;2023-06-14T12:41:44;6.05;;;2.53;;
77938;SDS011;67136;47.546;21.630;2023-06-14T12:44:47;4.97;;;2.60;;
77938;SDS011;67136;47.546;21.630;2023-06-14T12:47:50;8.33;;;2.60;;
77938;SDS011;67136;47.546;21.630;2023-06-14T12:50:54;3.42;;;2.30;;
77938;SDS011;67136;47.546;21.630;2023-06-14T12:53:57;4.37;;;2.40;;
77938;SDS011;67136;47.546;21.630;2023-06-14T12:56:59;9.27;;;3.30;;
77938;SDS011;67136;47.546;21.630;2023-06-14T13:00:07;4.75;;;2.65;;
77938;SDS011;67136;47.546;21.630;2023-06-14T13:03:11;4.63;;;2.70;;
77938;SDS011;67136;47.546;21.630;2023-06-14T13:06:14;5.07;;;2.95;;
77938;SDS011;67136;47.546;21.630;2023-06-14T13:09:16;5.57;;;2.55;;
77938;SDS011;67136;47.546;21.630;2023-06-14T13:12:19;5.10;;;2.85;;
77938;SDS011;67136;47.546;21.630;2023-06-14T13:15:22;7.12;;;3.03;;
77938;SDS011;67136;47.546;21.630;2023-06-14T13:18:24;3.10;;;2.30;;
77938;SDS011;67136;47.546;21.630;2023-06-14T13:21:28;6.25;;;2.75;;
77938;SDS011;67136;47.546;21.630;2023-06-14T13:24:30;5.28;;;2.87;;
77938;SDS011;67136;47.546;21.630;2023-06-14T13:27:33;6.87;;;2.33;;
77938;SDS011;67136;47.546;21.630;2023-06-14T13:30:36;4.78;;;2.10;;
77938;SDS011;67136;47.546;21.630;2023-06-14T13:33:39;5.80;;;2.20;;
77938;SDS011;67136;47.546;21.630;2023-06-14T13:36:42;8.82;;;2.58;;
77938;SDS011;67136;47.546;21.630;2023-06-14T13:39:44;9.18;;;3.15;;
77938;SDS011;67136;47.546;21.630;2023-06-14T13:42:47;18.85;;;3.12;;
77938;SDS011;67136;47.546;21.630;2023-06-14T13:45:50;3.78;;;2.50;;
77938;SDS011;67136;47.546;21.630;2023-06-14T13:48:52;4.40;;;2.60;;
77938;SDS011;67136;47.546;21.630;2023-06-14T13:51:55;3.53;;;2.33;;
77938;SDS011;67136;47.546;21.630;2023-06-14T13:54:58;4.55;;;2.92;;
77938;SDS011;67136;47.546;21.630;2023-06-14T13:58:02;3.67;;;2.60;;
77938;SDS011;67136;47.546;21.630;2023-06-14T14:01:05;4.50;;;2.90;;
77938;SDS011;67136;47.546;21.630;2023-06-14T14:04:08;4.33;;;2.63;;
77938;SDS011;67136;47.546;21.630;2023-06-14T14:07:11;5.65;;;2.85;;
77938;SDS011;67136;47.546;21.630;2023-06-14T14:10:19;4.85;;;2.72;;
77938;SDS011;67136;47.546;21.630;2023-06-14T14:13:25;5.43;;;2.62;;
77938;SDS011;67136;47.546;21.630;2023-06-14T14:16:28;18.67;;;3.22;;
77938;SDS011;67136;47.546;21.630;2023-06-14T14:19:32;4.20;;;2.70;;
77938;SDS011;67136;47.546;21.630;2023-06-14T14:22:39;5.82;;;2.62;;
77938;SDS011;67136;47.546;21.630;2023-06-14T14:25:41;12.60;;;3.55;;
77938;SDS011;67136;47.546;21.630;2023-06-14T14:28:44;9.25;;;2.83;;
77938;SDS011;67136;47.546;21.630;2023-06-14T14:31:47;7.80;;;2.80;;
77938;SDS011;67136;47.546;21.630;2023-06-14T14:34:50;5.27;;;2.53;;
77938;SDS011;67136;47.546;21.630;2023-06-14T14:37:52;4.70;;;2.80;;
77938;SDS011;67136;47.546;21.630;2023-06-14T14:40:55;3.67;;;2.90;;
77938;SDS011;67136;47.546;21.630;2023-06-14T14:43:57;4.90;;;2.45;;
77938;SDS011;67136;47.546;21.630;2023-06-14T14:47:02;4.75;;;2.60;;
77938;SDS011;67136;47.546;21.630;2023-06-14T14:50:05;4.07;;;2.80;;
77938;SDS011;67136;47.546;21.630;2023-06-14T14:53:11;4.22;;;2.12;;
77938;SDS011;67136;47.546;21.630;2023-06-14T14:56:13;3.42;;;2.50;;
77938;SDS011;67136;47.546;21.630;2023-06-14T14:59:16;3.03;;;2.47;;
77938;SDS011;67136;47.546;21.630;2023-06-14T15:02:20;6.82;;;2.60;;
77938;SDS011;67136;47.546;21.630;2023-06-14T15:05:23;4.87;;;2.40;;
77938;SDS011;67136;47.546;21.630;2023-06-14T15:08:25;4.85;;;2.40;;
77938;SDS011;67136;47.546;21.630;2023-06-14T15:11:28;6.80;;;2.50;;
77938;SDS011;67136;47.546;21.630;2023-06-14T15:14:31;4.22;;;2.65;;
77938;SDS011;67136;47.546;21.630;2023-06-14T15:17:34;5.05;;;2.37;;
77938;SDS011;67136;47.546;21.630;2023-06-14T15:20:39;4.37;;;2.50;;
77938;SDS011;67136;47.546;21.630;2023-06-14T15:23:48;10.30;;;2.90;;
77938;SDS011;67136;47.546;21.630;2023-06-14T15:26:51;6.57;;;2.97;;
77938;SDS011;67136;47.546;21.630;2023-06-14T15:29:54;5.07;;;2.62;;
77938;SDS011;67136;47.546;21.630;2023-06-14T15:33:00;3.25;;;2.45;;
77938;SDS011;67136;47.546;21.630;2023-06-14T15:36:05;3.50;;;2.57;;
77938;SDS011;67136;47.546;21.630;2023-06-14T15:39:11;5.40;;;2.60;;
77938;SDS011;67136;47.546;21.630;2023-06-14T15:42:14;3.95;;;3.00;;
77938;SDS011;67136;47.546;21.630;2023-06-14T15:45:19;4.00;;;2.80;;
77938;SDS011;67136;47.546;21.630;2023-06-14T15:48:22;7.20;;;3.10;;
77938;SDS011;67136;47.546;21.630;2023-06-14T15:51:24;4.23;;;2.73;;
77938;SDS011;67136;47.546;21.630;2023-06-14T15:54:27;4.05;;;2.60;;
77938;SDS011;67136;47.546;21.630;2023-06-14T15:57:32;3.58;;;2.60;;
77938;SDS011;67136;47.546;21.630;2023-06-14T16:00:35;5.03;;;2.92;;
77938;SDS011;67136;47.546;21.630;2023-06-14T16:03:44;6.10;;;3.10;;
77938;SDS011;67136;47.546;21.630;2023-06-14T16:06:54;4.37;;;2.70;;
77938;SDS011;67136;47.546;21.630;2023-06-14T16:09:57;5.93;;;2.70;;
77938;SDS011;67136;47.546;21.630;2023-06-14T16:13:00;4.82;;;3.55;;
77938;SDS011;67136;47.546;21.630;2023-06-14T16:16:02;5.28;;;2.75;;
77938;SDS011;67136;47.546;21.630;2023-06-14T16:19:05;3.45;;;2.92;;
77938;SDS011;67136;47.546;21.630;2023-06-14T16:22:08;4.00;;;2.80;;
77938;SDS011;67136;47.546;21.630;2023-06-14T16:25:13;4.35;;;2.67;;
77938;SDS011;67136;47.546;21.630;2023-06-14T16:28:16;5.25;;;2.78;;
77938;SDS011;67136;47.546;21.630;2023-06-14T16:31:18;6.37;;;2.92;;
77938;SDS011;67136;47.546;21.630;2023-06-14T16:34:25;4.97;;;2.65;;
77938;SDS011;67136;47.546;21.630;2023-06-14T16:37:28;7.80;;;2.80;;
77938;SDS011;67136;47.546;21.630;2023-06-14T16:40:31;6.12;;;3.05;;
77938;SDS011;67136;47.546;21.630;2023-06-14T16:43:35;3.62;;;2.60;;
77938;SDS011;67136;47.546;21.630;2023-06-14T16:46:38;7.87;;;2.78;;
77938;SDS011;67136;47.546;21.630;2023-06-14T16:49:40;6.95;;;2.67;;
77938;SDS011;67136;47.546;21.630;2023-06-14T16:52:43;5.50;;;2.97;;
77938;SDS011;67136;47.546;21.630;2023-06-14T16:55:46;5.05;;;3.20;;
77938;SDS011;67136;47.546;21.630;2023-06-14T16:58:52;4.40;;;3.00;;
77938;SDS011;67136;47.546;21.630;2023-06-14T17:02:00;3.40;;;2.90;;
77938;SDS011;67136;47.546;21.630;2023-06-14T17:05:07;6.75;;;3.10;;
77938;SDS011;67136;47.546;21.630;2023-06-14T17:08:12;7.27;;;3.00;;
77938;SDS011;67136;47.546;21.630;2023-06-14T17:11:15;3.87;;;2.75;;
77938;SDS011;67136;47.546;21.630;2023-06-14T17:14:20;3.97;;;2.92;;
77938;SDS011;67136;47.546;21.630;2023-06-14T17:17:23;4.47;;;3.00;;
77938;SDS011;67136;47.546;21.630;2023-06-14T17:20:26;4.95;;;3.25;;
77938;SDS011;67136;47.546;21.630;2023-06-14T17:23:29;3.97;;;2.87;;
77938;SDS011;67136;47.546;21.630;2023-06-14T17:26:32;3.95;;;2.60;;
77938;SDS011;67136;47.546;21.630;2023-06-14T17:29:38;5.18;;;3.87;;
77938;SDS011;67136;47.546;21.630;2023-06-14T17:32:41;8.20;;;4.60;;
77938;SDS011;67136;47.546;21.630;2023-06-14T17:35:43;8.25;;;4.87;;
77938;SDS011;67136;47.546;21.630;2023-06-14T17:38:49;5.53;;;3.77;;
77938;SDS011;67136;47.546;21.630;2023-06-14T17:41:52;5.15;;;3.08;;
77938;SDS011;67136;47.546;21.630;2023-06-14T17:44:57;3.83;;;2.90;;
77938;SDS011;67136;47.546;21.630;2023-06-14T17:48:01;4.05;;;3.08;;
77938;SDS011;67136;47.546;21.630;2023-06-14T17:51:04;8.32;;;4.30;;
77938;SDS011;67136;47.546;21.630;2023-06-14T17:54:08;7.03;;;3.73;;
77938;SDS011;67136;47.546;21.630;2023-06-14T17:57:11;6.00;;;3.40;;
77938;SDS011;67136;47.546;21.630;2023-06-14T18:00:14;7.43;;;3.78;;
77938;SDS011;67136;47.546;21.630;2023-06-14T18:03:20;7.07;;;3.65;;
77938;SDS011;67136;47.546;21.630;2023-06-14T18:06:23;8.30;;;3.70;;
77938;SDS011;67136;47.546;21.630;2023-06-14T18:09:26;6.37;;;3.60;;
77938;SDS011;67136;47.546;21.630;2023-06-14T18:12:29;5.32;;;3.30;;
77938;SDS011;67136;47.546;21.630;2023-06-14T18:15:33;5.93;;;3.15;;
77938;SDS011;67136;47.546;21.630;2023-06-14T18:18:36;8.77;;;3.90;;
77938;SDS011;67136;47.546;21.630;2023-06-14T18:21:39;10.18;;;3.47;;
77938;SDS011;67136;47.546;21.630;2023-06-14T18:24:42;5.47;;;3.23;;